AirNav   Air Wisconsin pilot careers
 
 311 users online  

5K1 Zelmer Memorial Airpark Inc
Palmyra, Illinois, USA


FAA INFORMATION EFFECTIVE 09 NOVEMBER 2017

Location

FAA Identifier: 5K1
Lat/Long: 39-25-12.1710N / 089-59-28.3830W
39-25.202850N / 089-59.473050W
39.4200475 / -89.9912175
(estimated)
Elevation: 663 ft. / 202.1 m (surveyed)
Variation: 01E (1985)
From city: 1 mile S of PALMYRA, IL
Time zone: UTC -6 (UTC -5 during Daylight Saving Time)
Zip code: 62674

Airport Operations

Airport use: Open to the public
Activation date: 07/1967
Control tower: no
ARTCC: KANSAS CITY CENTER
FSS: SAINT LOUIS FLIGHT SERVICE STATION
NOTAMs facility: STL (NOTAM-D service available)
Attendance: IREG
FOR ATTENDANT CALL 217-439-7497.
Pattern altitude: 1463 ft. MSL
Wind indicator: lighted
Segmented circle: no
Lights: ACTVT LIRL RY 18/36 - CTAF.

Airport Communications

CTAF: 122.9

Nearby radio navigation aids

VOR radial/distance  VOR name  Freq  Var
IJXr150/24.3JACKSONVILLE VOR/DME108.6002E
SPIr211/29.1SPINNER VORTAC112.7001W

 
NDB name  Hdg/Dist  Freq  Var  ID
CIVIC MEMORIAL006/31.826301WCVM -.-. ...- --

Airport Services

Fuel available: MOGAS
Parking: hangars and tiedowns
Airframe service: NONE
Powerplant service: NONE
Bottled oxygen: NONE
Bulk oxygen: NONE

Runway Information

Runway 18/36

Dimensions: 2900 x 32 ft. / 884 x 10 m
Surface: asphalt, in good condition
Runway edge lights: low intensity
Runway edge markings: DSPLCD THLD MKD WITH WHITE LINE & 3 AMBER LIGHTS ON EACH SIDE.
RUNWAY 18  RUNWAY 36
Latitude: 39-25.417000N39-24.986167N
Longitude: 089-59.489667W089-59.489667W
Elevation: 655.0 ft.663.0 ft.
Traffic pattern: leftleft
Displaced threshold: no307 ft.
Markings: NSTD, in good conditionNSTD, in good condition
Runway end identifier lights: nono

Airport Ownership and Management from official FAA records

Ownership: Privately-owned
Owner: ZELMER MEMORIAL AIRPARK INC
PO BOX 102
PALMYRA, IL 62674
Phone 618-436-9003
Manager: ED CLARK
PO BOX 102
PALMYRA, IL 62674
Phone 217-439-7497

Airport Operational Statistics

Aircraft based on the field: 17
Single engine airplanes: 16
Ultralights: 1
    
Aircraft operations: avg 96/week *
64% local general aviation
34% transient general aviation
2% air taxi
* for 12-month period ending 30 April 2017

Additional Remarks

A58-36 13 FT ROAD 30 FT FM RY END & PERPENDICULAR TO CNTRLN OF RY.
A57-36 APCH RATIO TO DSPLCD THLD OVER 13 FT ROAD 337 DIST IS 25:1.
ADMIN BLDG CAN BE ACCESSED BY CIPHER LOCK WHICH HAS APPLICABLE INSTRUCTIONS

Instrument Procedures

There are no published instrument procedures at 5K1.

Some nearby airports with instrument procedures:

3LF - Litchfield Municipal Airport (21 nm SE)
KIJX - Jacksonville Municipal Airport (24 nm NW)
KSPI - Abraham Lincoln Capital Airport (29 nm NE)
KTAZ - Taylorville Municipal Airport (31 nm E)
KALN - St Louis Regional Airport (32 nm S)
 
Loc | Ops | Rwys | IFR | FBO | Links
Com | Nav | Svcs | Stats | Notes


 
Area around 5K1 (Zelmer Memorial Airpark Inc)
 
Road maps at: MapQuest Bing Google
 
Aerial photo
WARNING: Photo may not be current or correct
Aerial photo of 5K1 (Zelmer Memorial Airpark Inc)
Photo by Isaac Pizzo
Photo taken 04-Mar-2006

Do you have a better or more recent aerial photo of Zelmer Memorial Airpark Inc that you would like to share? If so, please send us your photo.

 
Sectional chart

 
Airport distance calculator
Flying to Zelmer Memorial Airpark Inc? Find the distance to fly.

From to 5K1

Sunrise and sunset
Times for 20-Nov-2017
 Local
(UTC-6)
 Zulu
(UTC)
Morning civil twilight06:2112:21
Sunrise06:5012:50
Sunset16:4122:41
Evening civil twilight17:1023:10

Current date and time
Zulu (UTC)  20-Nov-2017 10:04:34
Local (UTC-6)  20-Nov-2017 04:04:34
 
METAR
K3LF 
21nm SE 
200955Z AUTO 17008KT 10SM CLR M01/M04 A3011 RMK AO2 T10111039
KIJX 
24nm NW 
200955Z AUTO 19011KT 10SM CLR 02/M04 A3005 RMK AO2 T00151044
KSPI 
29nm NE 
200952Z AUTO 20011KT 10SM CLR 02/M04 A3007 RMK AO2 SLP187 T00171044
KTAZ 
31nm E 
200955Z AUTO 18011KT 10SM CLR 00/M05 A3010 RMK AO2 T10031050
KALN 
32nm S 
200955Z AUTO 19011KT 10SM CLR 00/M04 A3012 RMK AO2 T00031045
KSET 
36nm SW 
200954Z AUTO 10003KT 10SM CLR M03/M06 A3012 RMK AO2 SLP202 T10281056
KPPQ 
39nm W 
200955Z AUTO 20008KT 10SM CLR 03/M03 A3005 RMK AO2 T00251032
TAF
KSPI 
29nm NE 
200520Z 2006/2106 20010KT P6SM BKN250 FM201800 20016G25KT P6SM SCT250 FM210000 19015KT P6SM BKN200
NOTAMs
Click for the latest NOTAMs
NOTAMs are issued by the DoD/FAA and will open in a separate window not controlled by AirNav.

 

 
 

Would you like to see your business listed on this page?

 If your business provides an interesting product or service to pilots, flight crews, aircraft, or users of the Zelmer Memorial Airpark Inc, you should consider listing it here.  To start the listing process, click on the button below
 
Add a business
 

Other Pages about Zelmer Memorial Airpark Inc

Update a link
 
Copyright © AirNav, LLC. All rights reserved. Privacy Policy  Contact